sensor_id;sensor_type;location;lat;lon;timestamp;P1;durP1;ratioP1;P2;durP2;ratioP2
38312;SDS011;24114;52.260;6.714;2023-07-30T00:01:46;3.20;;;0.80;;
38312;SDS011;24114;52.260;6.714;2023-07-30T00:04:14;3.33;;;0.70;;
38312;SDS011;24114;52.260;6.714;2023-07-30T00:06:42;4.23;;;0.80;;
38312;SDS011;24114;52.260;6.714;2023-07-30T00:09:09;4.90;;;1.10;;
38312;SDS011;24114;52.260;6.714;2023-07-30T00:11:37;3.95;;;0.93;;
38312;SDS011;24114;52.260;6.714;2023-07-30T00:14:06;3.97;;;1.23;;
38312;SDS011;24114;52.260;6.714;2023-07-30T00:16:35;3.33;;;1.33;;
38312;SDS011;24114;52.260;6.714;2023-07-30T00:19:03;4.22;;;1.42;;
38312;SDS011;24114;52.260;6.714;2023-07-30T00:21:30;3.58;;;1.27;;
38312;SDS011;24114;52.260;6.714;2023-07-30T00:23:58;4.75;;;1.75;;
38312;SDS011;24114;52.260;6.714;2023-07-30T00:26:26;4.32;;;1.67;;
38312;SDS011;24114;52.260;6.714;2023-07-30T00:28:55;7.22;;;2.03;;
38312;SDS011;24114;52.260;6.714;2023-07-30T00:31:22;4.05;;;1.50;;
38312;SDS011;24114;52.260;6.714;2023-07-30T00:33:52;5.75;;;2.10;;
38312;SDS011;24114;52.260;6.714;2023-07-30T00:36:20;4.65;;;1.60;;
38312;SDS011;24114;52.260;6.714;2023-07-30T00:38:48;4.82;;;1.55;;
38312;SDS011;24114;52.260;6.714;2023-07-30T00:41:15;4.43;;;1.80;;
38312;SDS011;24114;52.260;6.714;2023-07-30T00:43:43;5.43;;;2.25;;
38312;SDS011;24114;52.260;6.714;2023-07-30T00:46:11;4.85;;;1.80;;
38312;SDS011;24114;52.260;6.714;2023-07-30T00:48:39;5.07;;;1.67;;
38312;SDS011;24114;52.260;6.714;2023-07-30T00:51:08;5.75;;;2.20;;
38312;SDS011;24114;52.260;6.714;2023-07-30T00:53:36;6.47;;;2.10;;
38312;SDS011;24114;52.260;6.714;2023-07-30T00:56:05;5.57;;;2.45;;
38312;SDS011;24114;52.260;6.714;2023-07-30T00:58:32;4.53;;;2.38;;
38312;SDS011;24114;52.260;6.714;2023-07-30T01:01:00;4.93;;;2.15;;
38312;SDS011;24114;52.260;6.714;2023-07-30T01:03:28;4.93;;;2.10;;
38312;SDS011;24114;52.260;6.714;2023-07-30T01:05:56;5.95;;;2.47;;
38312;SDS011;24114;52.260;6.714;2023-07-30T01:08:26;7.40;;;2.35;;
38312;SDS011;24114;52.260;6.714;2023-07-30T01:10:54;6.47;;;2.40;;
38312;SDS011;24114;52.260;6.714;2023-07-30T01:13:22;4.18;;;2.00;;
38312;SDS011;24114;52.260;6.714;2023-07-30T01:15:50;6.15;;;2.47;;
38312;SDS011;24114;52.260;6.714;2023-07-30T01:18:18;5.13;;;2.15;;
38312;SDS011;24114;52.260;6.714;2023-07-30T01:20:45;4.20;;;2.40;;
38312;SDS011;24114;52.260;6.714;2023-07-30T01:23:15;4.55;;;2.22;;
38312;SDS011;24114;52.260;6.714;2023-07-30T01:25:42;5.83;;;2.23;;
38312;SDS011;24114;52.260;6.714;2023-07-30T01:28:12;5.00;;;2.00;;
38312;SDS011;24114;52.260;6.714;2023-07-30T01:30:44;5.45;;;2.05;;
38312;SDS011;24114;52.260;6.714;2023-07-30T01:33:13;4.57;;;1.98;;
38312;SDS011;24114;52.260;6.714;2023-07-30T01:35:41;5.80;;;2.63;;
38312;SDS011;24114;52.260;6.714;2023-07-30T01:38:09;4.03;;;2.13;;
38312;SDS011;24114;52.260;6.714;2023-07-30T01:40:39;4.72;;;2.42;;
38312;SDS011;24114;52.260;6.714;2023-07-30T01:43:07;4.72;;;2.03;;
38312;SDS011;24114;52.260;6.714;2023-07-30T01:45:34;3.55;;;1.80;;
38312;SDS011;24114;52.260;6.714;2023-07-30T01:48:02;7.50;;;2.40;;
38312;SDS011;24114;52.260;6.714;2023-07-30T01:50:30;4.95;;;2.22;;
38312;SDS011;24114;52.260;6.714;2023-07-30T01:52:58;4.93;;;2.00;;
38312;SDS011;24114;52.260;6.714;2023-07-30T01:55:26;3.80;;;2.15;;
38312;SDS011;24114;52.260;6.714;2023-07-30T01:57:55;7.13;;;2.10;;
38312;SDS011;24114;52.260;6.714;2023-07-30T02:00:23;5.07;;;2.07;;
38312;SDS011;24114;52.260;6.714;2023-07-30T02:02:51;5.50;;;2.05;;
38312;SDS011;24114;52.260;6.714;2023-07-30T02:05:19;4.68;;;1.80;;
38312;SDS011;24114;52.260;6.714;2023-07-30T02:07:47;6.05;;;1.60;;
38312;SDS011;24114;52.260;6.714;2023-07-30T02:10:15;4.43;;;1.50;;
38312;SDS011;24114;52.260;6.714;2023-07-30T02:12:43;7.57;;;2.00;;
38312;SDS011;24114;52.260;6.714;2023-07-30T02:15:12;4.40;;;1.90;;
38312;SDS011;24114;52.260;6.714;2023-07-30T02:17:40;4.57;;;1.85;;
38312;SDS011;24114;52.260;6.714;2023-07-30T02:20:08;4.28;;;1.55;;
38312;SDS011;24114;52.260;6.714;2023-07-30T02:22:36;4.43;;;1.80;;
38312;SDS011;24114;52.260;6.714;2023-07-30T02:25:04;5.28;;;1.90;;
38312;SDS011;24114;52.260;6.714;2023-07-30T02:27:33;4.53;;;1.70;;
38312;SDS011;24114;52.260;6.714;2023-07-30T02:30:01;4.35;;;1.90;;
38312;SDS011;24114;52.260;6.714;2023-07-30T02:32:30;5.25;;;2.00;;
38312;SDS011;24114;52.260;6.714;2023-07-30T02:34:58;7.22;;;1.55;;
38312;SDS011;24114;52.260;6.714;2023-07-30T02:37:26;4.88;;;1.80;;
38312;SDS011;24114;52.260;6.714;2023-07-30T02:39:53;5.20;;;1.90;;
38312;SDS011;24114;52.260;6.714;2023-07-30T02:42:21;4.05;;;2.05;;
38312;SDS011;24114;52.260;6.714;2023-07-30T02:44:49;4.00;;;1.73;;
38312;SDS011;24114;52.260;6.714;2023-07-30T02:47:17;7.00;;;2.20;;
38312;SDS011;24114;52.260;6.714;2023-07-30T02:49:46;5.25;;;2.00;;
38312;SDS011;24114;52.260;6.714;2023-07-30T02:52:14;4.18;;;1.83;;
38312;SDS011;24114;52.260;6.714;2023-07-30T02:54:42;6.75;;;2.08;;
38312;SDS011;24114;52.260;6.714;2023-07-30T02:57:10;6.95;;;1.75;;
38312;SDS011;24114;52.260;6.714;2023-07-30T02:59:39;5.43;;;1.90;;
38312;SDS011;24114;52.260;6.714;2023-07-30T03:02:07;4.47;;;1.73;;
38312;SDS011;24114;52.260;6.714;2023-07-30T03:04:35;4.53;;;1.85;;
38312;SDS011;24114;52.260;6.714;2023-07-30T03:07:05;5.30;;;1.70;;
38312;SDS011;24114;52.260;6.714;2023-07-30T03:09:33;5.15;;;1.98;;
38312;SDS011;24114;52.260;6.714;2023-07-30T03:12:00;5.63;;;1.73;;
38312;SDS011;24114;52.260;6.714;2023-07-30T03:14:29;5.07;;;2.03;;
38312;SDS011;24114;52.260;6.714;2023-07-30T03:16:56;5.15;;;2.00;;
38312;SDS011;24114;52.260;6.714;2023-07-30T03:19:24;6.18;;;2.40;;
38312;SDS011;24114;52.260;6.714;2023-07-30T03:21:52;4.18;;;1.80;;
38312;SDS011;24114;52.260;6.714;2023-07-30T03:24:21;5.15;;;2.17;;
38312;SDS011;24114;52.260;6.714;2023-07-30T03:26:49;3.63;;;1.90;;
38312;SDS011;24114;52.260;6.714;2023-07-30T03:29:17;6.97;;;2.30;;
38312;SDS011;24114;52.260;6.714;2023-07-30T03:31:45;4.78;;;2.20;;
38312;SDS011;24114;52.260;6.714;2023-07-30T03:34:12;5.00;;;2.03;;
38312;SDS011;24114;52.260;6.714;2023-07-30T03:36:40;6.47;;;2.08;;
38312;SDS011;24114;52.260;6.714;2023-07-30T03:39:08;5.00;;;2.13;;
38312;SDS011;24114;52.260;6.714;2023-07-30T03:41:38;4.47;;;2.40;;
38312;SDS011;24114;52.260;6.714;2023-07-30T03:44:06;5.35;;;2.33;;
38312;SDS011;24114;52.260;6.714;2023-07-30T03:46:34;6.38;;;2.47;;
38312;SDS011;24114;52.260;6.714;2023-07-30T03:49:01;6.45;;;2.05;;
38312;SDS011;24114;52.260;6.714;2023-07-30T03:51:29;4.47;;;2.40;;
38312;SDS011;24114;52.260;6.714;2023-07-30T03:53:59;5.60;;;2.03;;
38312;SDS011;24114;52.260;6.714;2023-07-30T03:56:27;3.90;;;1.98;;
38312;SDS011;24114;52.260;6.714;2023-07-30T03:58:56;4.90;;;2.10;;
38312;SDS011;24114;52.260;6.714;2023-07-30T04:01:24;4.77;;;2.10;;
38312;SDS011;24114;52.260;6.714;2023-07-30T04:03:51;4.03;;;2.15;;
38312;SDS011;24114;52.260;6.714;2023-07-30T04:06:19;4.20;;;1.83;;
38312;SDS011;24114;52.260;6.714;2023-07-30T04:08:47;5.05;;;2.30;;
38312;SDS011;24114;52.260;6.714;2023-07-30T04:11:15;5.18;;;2.10;;
38312;SDS011;24114;52.260;6.714;2023-07-30T04:13:43;5.65;;;2.38;;
38312;SDS011;24114;52.260;6.714;2023-07-30T04:16:12;6.18;;;2.10;;
38312;SDS011;24114;52.260;6.714;2023-07-30T04:18:40;6.17;;;2.30;;
38312;SDS011;24114;52.260;6.714;2023-07-30T04:21:08;8.02;;;2.63;;
38312;SDS011;24114;52.260;6.714;2023-07-30T04:23:36;5.93;;;2.30;;
38312;SDS011;24114;52.260;6.714;2023-07-30T04:26:04;7.28;;;2.70;;
38312;SDS011;24114;52.260;6.714;2023-07-30T04:28:32;6.05;;;2.58;;
38312;SDS011;24114;52.260;6.714;2023-07-30T04:31:00;6.63;;;2.85;;
38312;SDS011;24114;52.260;6.714;2023-07-30T04:33:29;6.50;;;2.57;;
38312;SDS011;24114;52.260;6.714;2023-07-30T04:35:57;7.73;;;2.70;;
38312;SDS011;24114;52.260;6.714;2023-07-30T04:38:25;7.40;;;3.08;;
38312;SDS011;24114;52.260;6.714;2023-07-30T04:40:52;7.57;;;3.28;;
38312;SDS011;24114;52.260;6.714;2023-07-30T04:43:20;5.55;;;2.97;;
38312;SDS011;24114;52.260;6.714;2023-07-30T04:45:48;5.68;;;2.72;;
38312;SDS011;24114;52.260;6.714;2023-07-30T04:48:16;6.90;;;2.88;;
38312;SDS011;24114;52.260;6.714;2023-07-30T04:50:45;6.55;;;2.75;;
38312;SDS011;24114;52.260;6.714;2023-07-30T04:53:13;8.02;;;3.17;;
38312;SDS011;24114;52.260;6.714;2023-07-30T04:55:42;7.60;;;2.85;;
38312;SDS011;24114;52.260;6.714;2023-07-30T04:58:10;6.75;;;2.92;;
38312;SDS011;24114;52.260;6.714;2023-07-30T05:00:38;6.45;;;2.80;;
38312;SDS011;24114;52.260;6.714;2023-07-30T05:03:05;8.45;;;3.10;;
38312;SDS011;24114;52.260;6.714;2023-07-30T05:05:33;7.22;;;2.90;;
38312;SDS011;24114;52.260;6.714;2023-07-30T05:08:03;7.30;;;3.38;;
38312;SDS011;24114;52.260;6.714;2023-07-30T05:10:31;8.90;;;3.40;;
38312;SDS011;24114;52.260;6.714;2023-07-30T05:12:58;11.27;;;4.18;;
38312;SDS011;24114;52.260;6.714;2023-07-30T05:15:26;7.22;;;3.63;;
38312;SDS011;24114;52.260;6.714;2023-07-30T05:17:54;13.00;;;4.18;;
38312;SDS011;24114;52.260;6.714;2023-07-30T05:20:22;10.38;;;4.07;;
38312;SDS011;24114;52.260;6.714;2023-07-30T05:22:50;10.85;;;3.90;;
38312;SDS011;24114;52.260;6.714;2023-07-30T05:25:20;10.30;;;4.68;;
38312;SDS011;24114;52.260;6.714;2023-07-30T05:27:49;12.02;;;4.63;;
38312;SDS011;24114;52.260;6.714;2023-07-30T05:30:16;10.68;;;4.85;;
38312;SDS011;24114;52.260;6.714;2023-07-30T05:32:45;10.95;;;5.15;;
38312;SDS011;24114;52.260;6.714;2023-07-30T05:35:13;11.65;;;5.85;;
38312;SDS011;24114;52.260;6.714;2023-07-30T05:37:41;11.57;;;4.97;;
38312;SDS011;24114;52.260;6.714;2023-07-30T05:40:09;10.93;;;4.90;;
38312;SDS011;24114;52.260;6.714;2023-07-30T05:42:38;12.38;;;5.72;;
38312;SDS011;24114;52.260;6.714;2023-07-30T05:45:07;13.70;;;5.30;;
38312;SDS011;24114;52.260;6.714;2023-07-30T05:47:35;16.75;;;6.10;;
38312;SDS011;24114;52.260;6.714;2023-07-30T05:50:03;12.80;;;5.88;;
38312;SDS011;24114;52.260;6.714;2023-07-30T05:52:31;12.73;;;6.25;;
38312;SDS011;24114;52.260;6.714;2023-07-30T05:54:59;15.85;;;6.88;;
38312;SDS011;24114;52.260;6.714;2023-07-30T05:57:27;15.87;;;7.23;;
38312;SDS011;24114;52.260;6.714;2023-07-30T05:59:56;15.13;;;7.15;;
38312;SDS011;24114;52.260;6.714;2023-07-30T06:02:24;16.13;;;7.38;;
38312;SDS011;24114;52.260;6.714;2023-07-30T06:04:52;16.47;;;6.80;;
38312;SDS011;24114;52.260;6.714;2023-07-30T06:07:20;13.88;;;7.05;;
38312;SDS011;24114;52.260;6.714;2023-07-30T06:09:47;15.77;;;7.97;;
38312;SDS011;24114;52.260;6.714;2023-07-30T06:12:15;15.32;;;7.40;;
38312;SDS011;24114;52.260;6.714;2023-07-30T06:14:43;14.67;;;6.80;;
38312;SDS011;24114;52.260;6.714;2023-07-30T06:17:12;13.48;;;7.50;;
38312;SDS011;24114;52.260;6.714;2023-07-30T06:19:40;17.95;;;8.18;;
38312;SDS011;24114;52.260;6.714;2023-07-30T06:22:08;16.53;;;8.10;;
38312;SDS011;24114;52.260;6.714;2023-07-30T06:24:36;17.35;;;7.20;;
38312;SDS011;24114;52.260;6.714;2023-07-30T06:27:04;17.73;;;7.60;;
38312;SDS011;24114;52.260;6.714;2023-07-30T06:29:32;19.50;;;8.45;;
38312;SDS011;24114;52.260;6.714;2023-07-30T06:32:00;15.10;;;7.40;;
38312;SDS011;24114;52.260;6.714;2023-07-30T06:34:30;19.97;;;8.37;;
38312;SDS011;24114;52.260;6.714;2023-07-30T06:36:58;15.50;;;7.90;;
38312;SDS011;24114;52.260;6.714;2023-07-30T06:39:25;18.15;;;8.13;;
38312;SDS011;24114;52.260;6.714;2023-07-30T06:41:53;18.27;;;8.55;;
38312;SDS011;24114;52.260;6.714;2023-07-30T06:44:21;18.90;;;8.52;;
38312;SDS011;24114;52.260;6.714;2023-07-30T06:46:50;22.75;;;8.95;;
38312;SDS011;24114;52.260;6.714;2023-07-30T06:49:19;17.48;;;8.00;;
38312;SDS011;24114;52.260;6.714;2023-07-30T06:51:48;19.07;;;8.73;;
38312;SDS011;24114;52.260;6.714;2023-07-30T06:54:16;15.40;;;8.10;;
38312;SDS011;24114;52.260;6.714;2023-07-30T06:56:44;18.10;;;8.38;;
38312;SDS011;24114;52.260;6.714;2023-07-30T06:59:12;20.30;;;8.60;;
38312;SDS011;24114;52.260;6.714;2023-07-30T07:01:39;22.10;;;8.82;;
38312;SDS011;24114;52.260;6.714;2023-07-30T07:04:08;15.52;;;7.80;;
38312;SDS011;24114;52.260;6.714;2023-07-30T07:06:35;19.50;;;8.83;;
38312;SDS011;24114;52.260;6.714;2023-07-30T07:09:05;17.58;;;8.10;;
38312;SDS011;24114;52.260;6.714;2023-07-30T07:11:32;17.85;;;8.88;;
38312;SDS011;24114;52.260;6.714;2023-07-30T07:14:01;17.63;;;8.65;;
38312;SDS011;24114;52.260;6.714;2023-07-30T07:16:29;17.73;;;8.98;;
38312;SDS011;24114;52.260;6.714;2023-07-30T07:18:57;18.63;;;9.18;;
38312;SDS011;24114;52.260;6.714;2023-07-30T07:21:25;17.58;;;9.13;;
38312;SDS011;24114;52.260;6.714;2023-07-30T07:23:53;18.25;;;9.23;;
38312;SDS011;24114;52.260;6.714;2023-07-30T07:26:23;17.58;;;8.43;;
38312;SDS011;24114;52.260;6.714;2023-07-30T07:28:51;16.48;;;8.55;;
38312;SDS011;24114;52.260;6.714;2023-07-30T07:31:18;18.77;;;8.75;;
38312;SDS011;24114;52.260;6.714;2023-07-30T07:33:46;19.92;;;8.55;;
38312;SDS011;24114;52.260;6.714;2023-07-30T07:36:14;16.58;;;8.40;;
38312;SDS011;24114;52.260;6.714;2023-07-30T07:38:42;17.67;;;8.43;;
38312;SDS011;24114;52.260;6.714;2023-07-30T07:41:13;18.40;;;9.43;;
38312;SDS011;24114;52.260;6.714;2023-07-30T07:43:44;15.53;;;8.00;;
38312;SDS011;24114;52.260;6.714;2023-07-30T07:46:13;17.80;;;8.15;;
38312;SDS011;24114;52.260;6.714;2023-07-30T07:48:41;18.13;;;8.32;;
38312;SDS011;24114;52.260;6.714;2023-07-30T07:51:10;16.15;;;8.70;;
38312;SDS011;24114;52.260;6.714;2023-07-30T07:53:38;14.85;;;8.57;;
38312;SDS011;24114;52.260;6.714;2023-07-30T07:56:06;15.97;;;8.43;;
38312;SDS011;24114;52.260;6.714;2023-07-30T07:58:34;17.20;;;8.95;;
38312;SDS011;24114;52.260;6.714;2023-07-30T08:01:03;19.60;;;8.98;;
38312;SDS011;24114;52.260;6.714;2023-07-30T08:03:31;17.30;;;8.30;;
38312;SDS011;24114;52.260;6.714;2023-07-30T08:05:59;17.20;;;8.25;;
38312;SDS011;24114;52.260;6.714;2023-07-30T08:08:27;13.63;;;8.45;;
38312;SDS011;24114;52.260;6.714;2023-07-30T08:10:54;15.15;;;7.90;;
38312;SDS011;24114;52.260;6.714;2023-07-30T08:13:22;17.08;;;7.93;;
38312;SDS011;24114;52.260;6.714;2023-07-30T08:15:51;14.20;;;7.37;;
38312;SDS011;24114;52.260;6.714;2023-07-30T08:18:20;15.47;;;7.90;;
38312;SDS011;24114;52.260;6.714;2023-07-30T08:20:49;13.50;;;7.63;;
38312;SDS011;24114;52.260;6.714;2023-07-30T08:23:16;12.63;;;7.78;;
38312;SDS011;24114;52.260;6.714;2023-07-30T08:25:44;16.55;;;7.78;;
38312;SDS011;24114;52.260;6.714;2023-07-30T08:28:12;13.95;;;7.43;;
38312;SDS011;24114;52.260;6.714;2023-07-30T08:30:40;16.38;;;7.53;;
38312;SDS011;24114;52.260;6.714;2023-07-30T08:33:08;10.75;;;6.97;;
38312;SDS011;24114;52.260;6.714;2023-07-30T08:35:37;12.90;;;6.72;;
38312;SDS011;24114;52.260;6.714;2023-07-30T08:38:05;13.40;;;7.20;;
38312;SDS011;24114;52.260;6.714;2023-07-30T08:40:32;13.87;;;6.90;;
38312;SDS011;24114;52.260;6.714;2023-07-30T08:43:00;12.30;;;6.47;;
38312;SDS011;24114;52.260;6.714;2023-07-30T08:45:30;11.57;;;6.30;;
38312;SDS011;24114;52.260;6.714;2023-07-30T08:47:58;15.90;;;6.30;;
38312;SDS011;24114;52.260;6.714;2023-07-30T08:50:25;11.50;;;5.15;;
38312;SDS011;24114;52.260;6.714;2023-07-30T08:52:55;14.75;;;5.88;;
38312;SDS011;24114;52.260;6.714;2023-07-30T08:55:23;11.95;;;5.30;;
38312;SDS011;24114;52.260;6.714;2023-07-30T08:59:06;9.65;;;5.18;;
38312;SDS011;24114;52.260;6.714;2023-07-30T09:01:37;9.97;;;5.30;;
38312;SDS011;24114;52.260;6.714;2023-07-30T09:04:06;11.77;;;5.30;;
38312;SDS011;24114;52.260;6.714;2023-07-30T09:06:35;11.17;;;4.90;;
38312;SDS011;24114;52.260;6.714;2023-07-30T09:09:05;10.90;;;5.00;;
38312;SDS011;24114;52.260;6.714;2023-07-30T09:11:32;10.80;;;5.10;;
38312;SDS011;24114;52.260;6.714;2023-07-30T09:14:52;11.45;;;5.35;;
38312;SDS011;24114;52.260;6.714;2023-07-30T09:17:20;8.57;;;4.55;;
38312;SDS011;24114;52.260;6.714;2023-07-30T09:19:47;9.45;;;4.70;;
38312;SDS011;24114;52.260;6.714;2023-07-30T09:22:19;10.33;;;4.83;;
38312;SDS011;24114;52.260;6.714;2023-07-30T09:24:49;12.30;;;5.00;;
38312;SDS011;24114;52.260;6.714;2023-07-30T09:27:19;12.07;;;5.03;;
38312;SDS011;24114;52.260;6.714;2023-07-30T09:29:54;11.55;;;5.25;;
38312;SDS011;24114;52.260;6.714;2023-07-30T09:32:25;11.15;;;4.43;;
38312;SDS011;24114;52.260;6.714;2023-07-30T09:34:53;8.57;;;4.18;;
38312;SDS011;24114;52.260;6.714;2023-07-30T09:37:21;7.55;;;4.10;;
38312;SDS011;24114;52.260;6.714;2023-07-30T09:39:49;9.52;;;3.72;;
38312;SDS011;24114;52.260;6.714;2023-07-30T09:42:17;9.93;;;3.80;;
38312;SDS011;24114;52.260;6.714;2023-07-30T09:44:46;8.27;;;3.47;;
38312;SDS011;24114;52.260;6.714;2023-07-30T09:47:16;9.90;;;3.60;;
38312;SDS011;24114;52.260;6.714;2023-07-30T09:49:44;7.13;;;3.10;;
38312;SDS011;24114;52.260;6.714;2023-07-30T09:52:12;5.70;;;2.67;;
38312;SDS011;24114;52.260;6.714;2023-07-30T09:54:41;8.77;;;3.07;;
38312;SDS011;24114;52.260;6.714;2023-07-30T09:57:09;7.65;;;3.10;;
38312;SDS011;24114;52.260;6.714;2023-07-30T09:59:37;7.20;;;2.70;;
38312;SDS011;24114;52.260;6.714;2023-07-30T10:02:05;6.53;;;2.70;;
38312;SDS011;24114;52.260;6.714;2023-07-30T10:04:36;6.40;;;2.70;;
38312;SDS011;24114;52.260;6.714;2023-07-30T10:07:06;3.75;;;1.83;;
38312;SDS011;24114;52.260;6.714;2023-07-30T10:09:39;5.88;;;2.47;;
38312;SDS011;24114;52.260;6.714;2023-07-30T10:12:10;6.22;;;2.13;;
38312;SDS011;24114;52.260;6.714;2023-07-30T10:14:39;5.97;;;2.22;;
38312;SDS011;24114;52.260;6.714;2023-07-30T10:17:09;8.23;;;2.40;;
38312;SDS011;24114;52.260;6.714;2023-07-30T10:19:39;5.57;;;2.30;;
38312;SDS011;24114;52.260;6.714;2023-07-30T10:22:19;5.55;;;2.00;;
38312;SDS011;24114;52.260;6.714;2023-07-30T10:24:57;5.73;;;2.30;;
38312;SDS011;24114;52.260;6.714;2023-07-30T10:27:29;5.10;;;2.35;;
38312;SDS011;24114;52.260;6.714;2023-07-30T10:30:10;6.95;;;2.78;;
38312;SDS011;24114;52.260;6.714;2023-07-30T10:32:39;6.05;;;2.63;;
38312;SDS011;24114;52.260;6.714;2023-07-30T10:35:09;9.17;;;2.30;;
38312;SDS011;24114;52.260;6.714;2023-07-30T10:37:59;7.00;;;2.33;;
38312;SDS011;24114;52.260;6.714;2023-07-30T10:40:27;5.88;;;1.70;;
38312;SDS011;24114;52.260;6.714;2023-07-30T10:42:57;6.30;;;2.17;;
38312;SDS011;24114;52.260;6.714;2023-07-30T10:45:25;7.10;;;2.40;;
38312;SDS011;24114;52.260;6.714;2023-07-30T10:47:53;6.77;;;2.17;;
38312;SDS011;24114;52.260;6.714;2023-07-30T10:50:32;6.70;;;2.28;;
38312;SDS011;24114;52.260;6.714;2023-07-30T10:53:00;6.65;;;1.90;;
38312;SDS011;24114;52.260;6.714;2023-07-30T10:55:29;5.87;;;1.60;;
38312;SDS011;24114;52.260;6.714;2023-07-30T10:57:57;5.68;;;1.70;;
38312;SDS011;24114;52.260;6.714;2023-07-30T11:00:25;5.65;;;1.70;;
38312;SDS011;24114;52.260;6.714;2023-07-30T11:02:53;5.68;;;1.85;;
38312;SDS011;24114;52.260;6.714;2023-07-30T11:05:21;4.93;;;1.50;;
38312;SDS011;24114;52.260;6.714;2023-07-30T11:07:52;6.13;;;2.00;;
38312;SDS011;24114;52.260;6.714;2023-07-30T11:10:20;5.28;;;1.42;;
38312;SDS011;24114;52.260;6.714;2023-07-30T11:12:48;4.90;;;1.55;;
38312;SDS011;24114;52.260;6.714;2023-07-30T11:15:16;5.65;;;1.75;;
38312;SDS011;24114;52.260;6.714;2023-07-30T11:17:44;6.03;;;1.50;;
38312;SDS011;24114;52.260;6.714;2023-07-30T11:20:22;8.35;;;2.05;;
38312;SDS011;24114;52.260;6.714;2023-07-30T11:22:54;3.47;;;1.88;;
38312;SDS011;24114;52.260;6.714;2023-07-30T11:25:21;6.55;;;1.73;;
38312;SDS011;24114;52.260;6.714;2023-07-30T11:27:50;4.75;;;1.63;;
38312;SDS011;24114;52.260;6.714;2023-07-30T11:30:18;5.90;;;2.05;;
38312;SDS011;24114;52.260;6.714;2023-07-30T11:32:46;3.83;;;1.63;;
38312;SDS011;24114;52.260;6.714;2023-07-30T11:35:14;6.45;;;1.95;;
38312;SDS011;24114;52.260;6.714;2023-07-30T11:37:43;5.40;;;1.63;;
38312;SDS011;24114;52.260;6.714;2023-07-30T11:40:12;6.20;;;1.55;;
38312;SDS011;24114;52.260;6.714;2023-07-30T11:42:40;5.53;;;1.77;;
38312;SDS011;24114;52.260;6.714;2023-07-30T11:45:18;6.15;;;1.65;;
38312;SDS011;24114;52.260;6.714;2023-07-30T11:47:47;5.13;;;1.70;;
38312;SDS011;24114;52.260;6.714;2023-07-30T11:50:15;6.10;;;1.80;;
38312;SDS011;24114;52.260;6.714;2023-07-30T11:52:52;6.38;;;1.42;;
38312;SDS011;24114;52.260;6.714;2023-07-30T11:55:23;4.50;;;1.30;;
38312;SDS011;24114;52.260;6.714;2023-07-30T11:57:51;6.82;;;1.63;;
38312;SDS011;24114;52.260;6.714;2023-07-30T12:00:20;5.40;;;1.35;;
38312;SDS011;24114;52.260;6.714;2023-07-30T12:02:48;5.07;;;1.70;;
38312;SDS011;24114;52.260;6.714;2023-07-30T12:05:16;6.63;;;1.35;;
38312;SDS011;24114;52.260;6.714;2023-07-30T12:07:46;5.68;;;1.33;;
38312;SDS011;24114;52.260;6.714;2023-07-30T12:10:15;4.38;;;1.45;;
38312;SDS011;24114;52.260;6.714;2023-07-30T12:12:47;5.93;;;1.70;;
38312;SDS011;24114;52.260;6.714;2023-07-30T12:15:19;4.07;;;1.20;;
38312;SDS011;24114;52.260;6.714;2023-07-30T12:17:49;4.25;;;1.13;;
38312;SDS011;24114;52.260;6.714;2023-07-30T12:20:16;4.40;;;1.15;;
38312;SDS011;24114;52.260;6.714;2023-07-30T12:22:44;3.15;;;0.93;;
38312;SDS011;24114;52.260;6.714;2023-07-30T12:25:12;4.53;;;0.67;;
38312;SDS011;24114;52.260;6.714;2023-07-30T12:27:40;4.40;;;0.85;;
38312;SDS011;24114;52.260;6.714;2023-07-30T12:30:10;3.30;;;0.67;;
38312;SDS011;24114;52.260;6.714;2023-07-30T12:32:38;4.60;;;0.70;;
38312;SDS011;24114;52.260;6.714;2023-07-30T12:35:06;3.85;;;0.65;;
38312;SDS011;24114;52.260;6.714;2023-07-30T12:37:34;2.05;;;0.70;;
38312;SDS011;24114;52.260;6.714;2023-07-30T12:40:03;3.63;;;0.70;;
38312;SDS011;24114;52.260;6.714;2023-07-30T12:42:32;5.13;;;0.90;;
38312;SDS011;24114;52.260;6.714;2023-07-30T12:44:59;2.47;;;0.70;;
38312;SDS011;24114;52.260;6.714;2023-07-30T12:47:28;3.03;;;0.65;;
38312;SDS011;24114;52.260;6.714;2023-07-30T12:49:56;4.47;;;0.60;;
38312;SDS011;24114;52.260;6.714;2023-07-30T12:52:25;3.67;;;1.00;;
38312;SDS011;24114;52.260;6.714;2023-07-30T12:54:53;2.88;;;0.50;;
38312;SDS011;24114;52.260;6.714;2023-07-30T12:57:20;3.92;;;1.10;;
38312;SDS011;24114;52.260;6.714;2023-07-30T12:59:48;4.63;;;0.70;;
38312;SDS011;24114;52.260;6.714;2023-07-30T13:02:16;4.28;;;0.98;;
38312;SDS011;24114;52.260;6.714;2023-07-30T13:04:46;3.97;;;0.98;;
38312;SDS011;24114;52.260;6.714;2023-07-30T13:07:13;1.93;;;0.40;;
38312;SDS011;24114;52.260;6.714;2023-07-30T13:09:41;5.43;;;0.73;;
38312;SDS011;24114;52.260;6.714;2023-07-30T13:12:09;3.58;;;0.43;;
38312;SDS011;24114;52.260;6.714;2023-07-30T13:14:37;2.60;;;0.60;;
38312;SDS011;24114;52.260;6.714;2023-07-30T13:17:05;2.30;;;0.43;;
38312;SDS011;24114;52.260;6.714;2023-07-30T13:19:33;3.63;;;0.38;;
38312;SDS011;24114;52.260;6.714;2023-07-30T13:22:06;4.47;;;0.47;;
38312;SDS011;24114;52.260;6.714;2023-07-30T13:24:34;2.05;;;0.38;;
38312;SDS011;24114;52.260;6.714;2023-07-30T13:27:02;3.47;;;0.40;;
38312;SDS011;24114;52.260;6.714;2023-07-30T13:29:30;2.60;;;0.20;;
38312;SDS011;24114;52.260;6.714;2023-07-30T13:31:58;2.58;;;0.30;;
38312;SDS011;24114;52.260;6.714;2023-07-30T13:34:26;2.33;;;0.50;;
38312;SDS011;24114;52.260;6.714;2023-07-30T13:36:54;2.45;;;0.30;;
38312;SDS011;24114;52.260;6.714;2023-07-30T13:39:23;1.92;;;0.20;;
38312;SDS011;24114;52.260;6.714;2023-07-30T13:41:51;2.53;;;0.20;;
38312;SDS011;24114;52.260;6.714;2023-07-30T13:44:19;2.47;;;0.30;;
38312;SDS011;24114;52.260;6.714;2023-07-30T13:46:47;3.05;;;0.20;;
38312;SDS011;24114;52.260;6.714;2023-07-30T13:49:15;1.63;;;0.20;;
38312;SDS011;24114;52.260;6.714;2023-07-30T13:51:44;2.83;;;0.35;;
38312;SDS011;24114;52.260;6.714;2023-07-30T13:54:12;2.13;;;0.20;;
38312;SDS011;24114;52.260;6.714;2023-07-30T13:56:41;2.58;;;0.20;;
38312;SDS011;24114;52.260;6.714;2023-07-30T13:59:09;7.47;;;0.40;;
38312;SDS011;24114;52.260;6.714;2023-07-30T14:01:37;3.42;;;0.10;;
38312;SDS011;24114;52.260;6.714;2023-07-30T14:04:05;2.95;;;0.28;;
38312;SDS011;24114;52.260;6.714;2023-07-30T14:06:33;1.20;;;0.10;;
38312;SDS011;24114;52.260;6.714;2023-07-30T14:09:01;1.23;;;0.20;;
38312;SDS011;24114;52.260;6.714;2023-07-30T14:11:30;0.95;;;0.10;;
38312;SDS011;24114;52.260;6.714;2023-07-30T14:13:59;1.02;;;0.10;;
38312;SDS011;24114;52.260;6.714;2023-07-30T14:16:27;1.67;;;0.20;;
38312;SDS011;24114;52.260;6.714;2023-07-30T14:18:55;0.70;;;0.00;;
38312;SDS011;24114;52.260;6.714;2023-07-30T14:21:23;0.82;;;0.22;;
38312;SDS011;24114;52.260;6.714;2023-07-30T14:23:50;1.83;;;0.10;;
38312;SDS011;24114;52.260;6.714;2023-07-30T14:26:18;2.30;;;0.30;;
38312;SDS011;24114;52.260;6.714;2023-07-30T14:28:47;4.37;;;0.80;;
38312;SDS011;24114;52.260;6.714;2023-07-30T14:31:16;1.55;;;0.10;;
38312;SDS011;24114;52.260;6.714;2023-07-30T14:33:44;2.58;;;0.30;;
38312;SDS011;24114;52.260;6.714;2023-07-30T14:36:12;1.67;;;0.13;;
38312;SDS011;24114;52.260;6.714;2023-07-30T14:38:39;3.15;;;0.20;;
38312;SDS011;24114;52.260;6.714;2023-07-30T14:41:07;2.70;;;0.40;;
38312;SDS011;24114;52.260;6.714;2023-07-30T14:43:35;2.92;;;0.20;;
38312;SDS011;24114;52.260;6.714;2023-07-30T14:46:03;2.30;;;0.30;;
38312;SDS011;24114;52.260;6.714;2023-07-30T14:48:33;2.28;;;0.10;;
38312;SDS011;24114;52.260;6.714;2023-07-30T14:51:01;2.75;;;0.30;;
38312;SDS011;24114;52.260;6.714;2023-07-30T14:53:29;1.58;;;0.10;;